sensor_id;sensor_type;location;lat;lon;timestamp;pressure;altitude;pressure_sealevel;temperature;humidity
25238;BME280;13185;50.872;5.306;2024-01-15T00:00:16;100224.00;;;0.19;100.00
25238;BME280;13185;50.872;5.306;2024-01-15T00:02:42;100224.00;;;0.19;100.00
25238;BME280;13185;50.872;5.306;2024-01-15T00:05:07;100219.56;;;0.21;100.00
25238;BME280;13185;50.872;5.306;2024-01-15T00:07:33;100224.78;;;0.23;100.00
25238;BME280;13185;50.872;5.306;2024-01-15T00:09:58;100219.38;;;0.26;100.00
25238;BME280;13185;50.872;5.306;2024-01-15T00:12:24;100222.88;;;0.26;100.00
25238;BME280;13185;50.872;5.306;2024-01-15T00:14:49;100215.84;;;0.27;100.00
25238;BME280;13185;50.872;5.306;2024-01-15T00:17:15;100216.63;;;0.29;100.00
25238;BME280;13185;50.872;5.306;2024-01-15T00:19:40;100210.44;;;0.30;100.00
25238;BME280;13185;50.872;5.306;2024-01-15T00:22:06;100214.78;;;0.33;100.00
25238;BME280;13185;50.872;5.306;2024-01-15T00:24:31;100215.59;;;0.35;100.00
25238;BME280;13185;50.872;5.306;2024-01-15T00:26:57;100220.81;;;0.36;100.00
25238;BME280;13185;50.872;5.306;2024-01-15T00:29:24;100211.97;;;0.37;100.00
25238;BME280;13185;50.872;5.306;2024-01-15T00:31:49;100216.34;;;0.38;100.00
25238;BME280;13185;50.872;5.306;2024-01-15T00:34:15;100211.94;;;0.39;100.00
25238;BME280;13185;50.872;5.306;2024-01-15T00:36:40;100216.28;;;0.40;100.00
25238;BME280;13185;50.872;5.306;2024-01-15T00:39:06;100223.34;;;0.39;100.00
25238;BME280;13185;50.872;5.306;2024-01-15T00:41:31;100223.25;;;0.42;100.00
25238;BME280;13185;50.872;5.306;2024-01-15T00:43:57;100223.25;;;0.42;100.00
25238;BME280;13185;50.872;5.306;2024-01-15T00:46:22;100215.44;;;0.39;100.00
25238;BME280;13185;50.872;5.306;2024-01-15T00:48:48;100211.00;;;0.40;100.00
25238;BME280;13185;50.872;5.306;2024-01-15T00:51:13;100209.28;;;0.39;100.00
25238;BME280;13185;50.872;5.306;2024-01-15T00:53:39;100211.94;;;0.39;100.00
25238;BME280;13185;50.872;5.306;2024-01-15T00:56:05;100208.47;;;0.37;100.00
25238;BME280;13185;50.872;5.306;2024-01-15T00:58:30;100205.09;;;0.33;100.00
25238;BME280;13185;50.872;5.306;2024-01-15T01:00:56;100205.09;;;0.33;100.00
25238;BME280;13185;50.872;5.306;2024-01-15T01:03:22;100202.41;;;0.35;100.00
25238;BME280;13185;50.872;5.306;2024-01-15T01:05:50;100202.41;;;0.35;100.00
25238;BME280;13185;50.872;5.306;2024-01-15T01:08:16;100191.00;;;0.34;100.00
25238;BME280;13185;50.872;5.306;2024-01-15T01:10:42;100185.78;;;0.33;100.00
25238;BME280;13185;50.872;5.306;2024-01-15T01:13:10;100184.84;;;0.34;100.00
25238;BME280;13185;50.872;5.306;2024-01-15T01:15:36;100182.28;;;0.32;100.00
25238;BME280;13185;50.872;5.306;2024-01-15T01:18:02;100185.78;;;0.31;100.00
25238;BME280;13185;50.872;5.306;2024-01-15T01:20:27;100171.75;;;0.31;100.00
25238;BME280;13185;50.872;5.306;2024-01-15T01:22:53;100173.59;;;0.28;100.00
25238;BME280;13185;50.872;5.306;2024-01-15T01:25:18;100168.31;;;0.28;100.00
25238;BME280;13185;50.872;5.306;2024-01-15T01:27:44;100162.16;;;0.28;100.00
25238;BME280;13185;50.872;5.306;2024-01-15T01:30:10;100160.41;;;0.28;100.00
25238;BME280;13185;50.872;5.306;2024-01-15T01:32:35;100160.41;;;0.28;100.00
25238;BME280;13185;50.872;5.306;2024-01-15T01:35:01;100161.31;;;0.27;100.00
25238;BME280;13185;50.872;5.306;2024-01-15T01:37:26;100165.66;;;0.28;100.00
25238;BME280;13185;50.872;5.306;2024-01-15T01:39:52;100168.31;;;0.28;100.00
25238;BME280;13185;50.872;5.306;2024-01-15T01:42:17;100167.38;;;0.29;100.00
25238;BME280;13185;50.872;5.306;2024-01-15T01:44:43;100170.94;;;0.28;100.00
25238;BME280;13185;50.872;5.306;2024-01-15T01:47:08;100171.84;;;0.27;100.00
25238;BME280;13185;50.872;5.306;2024-01-15T01:49:34;100170.09;;;0.28;100.00
25238;BME280;13185;50.872;5.306;2024-01-15T01:52:02;100169.16;;;0.29;100.00
25238;BME280;13185;50.872;5.306;2024-01-15T01:54:29;100176.22;;;0.28;100.00
25238;BME280;13185;50.872;5.306;2024-01-15T01:56:57;100172.66;;;0.29;100.00
25238;BME280;13185;50.872;5.306;2024-01-15T01:59:25;100171.81;;;0.29;100.00
25238;BME280;13185;50.872;5.306;2024-01-15T02:01:51;100167.38;;;0.29;100.00
25238;BME280;13185;50.872;5.306;2024-01-15T02:04:18;100172.59;;;0.33;100.00
25238;BME280;13185;50.872;5.306;2024-01-15T02:06:44;100175.22;;;0.33;100.00
25238;BME280;13185;50.872;5.306;2024-01-15T02:09:10;100170.75;;;0.35;100.00
25238;BME280;13185;50.872;5.306;2024-01-15T02:11:36;100174.19;;;0.37;100.00
25238;BME280;13185;50.872;5.306;2024-01-15T02:14:02;100169.78;;;0.37;100.00
25238;BME280;13185;50.872;5.306;2024-01-15T02:16:28;100169.78;;;0.37;100.00
25238;BME280;13185;50.872;5.306;2024-01-15T02:18:54;100167.94;;;0.39;100.00
25238;BME280;13185;50.872;5.306;2024-01-15T02:21:19;100166.16;;;0.40;100.00
25238;BME280;13185;50.872;5.306;2024-01-15T02:23:45;100165.31;;;0.39;100.00
25238;BME280;13185;50.872;5.306;2024-01-15T02:26:10;100167.88;;;0.41;100.00
25238;BME280;13185;50.872;5.306;2024-01-15T02:28:36;100159.97;;;0.41;100.00
25238;BME280;13185;50.872;5.306;2024-01-15T02:31:02;100159.97;;;0.41;100.00
25238;BME280;13185;50.872;5.306;2024-01-15T02:33:27;100168.81;;;0.40;100.00
25238;BME280;13185;50.872;5.306;2024-01-15T02:35:53;100164.38;;;0.40;100.00
25238;BME280;13185;50.872;5.306;2024-01-15T02:38:18;100165.31;;;0.39;100.00
25238;BME280;13185;50.872;5.306;2024-01-15T02:40:44;100161.81;;;0.39;100.00
25238;BME280;13185;50.872;5.306;2024-01-15T02:43:10;100160.03;;;0.39;100.00
25238;BME280;13185;50.872;5.306;2024-01-15T02:45:36;100166.09;;;0.41;100.00
25238;BME280;13185;50.872;5.306;2024-01-15T02:48:01;100147.69;;;0.40;100.00
25238;BME280;13185;50.872;5.306;2024-01-15T02:50:27;100159.09;;;0.42;100.00
25238;BME280;13185;50.872;5.306;2024-01-15T02:52:52;100162.59;;;0.41;100.00
25238;BME280;13185;50.872;5.306;2024-01-15T02:55:18;100167.09;;;0.39;100.00
25238;BME280;13185;50.872;5.306;2024-01-15T02:57:44;100155.66;;;0.38;100.00
25238;BME280;13185;50.872;5.306;2024-01-15T03:00:09;100154.81;;;0.38;100.00
25238;BME280;13185;50.872;5.306;2024-01-15T03:02:39;100152.13;;;0.39;100.00
25238;BME280;13185;50.872;5.306;2024-01-15T03:05:08;100155.56;;;0.41;100.00
25238;BME280;13185;50.872;5.306;2024-01-15T03:07:34;100157.34;;;0.41;100.00
25238;BME280;13185;50.872;5.306;2024-01-15T03:10:00;100158.16;;;0.43;100.00
25238;BME280;13185;50.872;5.306;2024-01-15T03:12:25;100149.41;;;0.42;100.00
25238;BME280;13185;50.872;5.306;2024-01-15T03:14:51;100147.66;;;0.41;100.00
25238;BME280;13185;50.872;5.306;2024-01-15T03:17:16;100143.25;;;0.42;100.00
25238;BME280;13185;50.872;5.306;2024-01-15T03:19:41;100148.47;;;0.43;100.00
25238;BME280;13185;50.872;5.306;2024-01-15T03:22:07;100141.41;;;0.44;100.00
25238;BME280;13185;50.872;5.306;2024-01-15T03:24:34;100137.91;;;0.43;100.00
25238;BME280;13185;50.872;5.306;2024-01-15T03:27:00;100134.44;;;0.43;100.00
25238;BME280;13185;50.872;5.306;2024-01-15T03:29:26;100141.41;;;0.44;100.00
25238;BME280;13185;50.872;5.306;2024-01-15T03:31:52;100132.59;;;0.45;100.00
25238;BME280;13185;50.872;5.306;2024-01-15T03:34:17;100139.59;;;0.46;100.00
25238;BME280;13185;50.872;5.306;2024-01-15T03:36:43;100134.38;;;0.44;100.00
25238;BME280;13185;50.872;5.306;2024-01-15T03:39:09;100131.72;;;0.44;100.00
25238;BME280;13185;50.872;5.306;2024-01-15T03:41:34;100120.25;;;0.45;100.00
25238;BME280;13185;50.872;5.306;2024-01-15T03:43:59;100124.69;;;0.45;100.00
25238;BME280;13185;50.872;5.306;2024-01-15T03:46:25;100119.41;;;0.45;100.00
25238;BME280;13185;50.872;5.306;2024-01-15T03:48:51;100122.97;;;0.44;100.00
25238;BME280;13185;50.872;5.306;2024-01-15T03:51:20;100119.47;;;0.43;100.00
25238;BME280;13185;50.872;5.306;2024-01-15T03:53:45;100118.47;;;0.46;100.00
25238;BME280;13185;50.872;5.306;2024-01-15T03:56:11;100121.91;;;0.48;100.00
25238;BME280;13185;50.872;5.306;2024-01-15T03:58:37;100114.06;;;0.46;100.00
25238;BME280;13185;50.872;5.306;2024-01-15T04:01:03;100112.22;;;0.48;100.00
25238;BME280;13185;50.872;5.306;2024-01-15T04:03:28;100116.66;;;0.48;100.00
25238;BME280;13185;50.872;5.306;2024-01-15T04:05:54;100112.22;;;0.48;100.00
25238;BME280;13185;50.872;5.306;2024-01-15T04:08:19;100103.44;;;0.48;100.00
25238;BME280;13185;50.872;5.306;2024-01-15T04:10:45;100104.38;;;0.47;100.00
25238;BME280;13185;50.872;5.306;2024-01-15T04:13:10;100104.38;;;0.47;100.00
25238;BME280;13185;50.872;5.306;2024-01-15T04:15:36;100106.09;;;0.48;100.00
25238;BME280;13185;50.872;5.306;2024-01-15T04:18:02;100100.00;;;0.46;100.00
25238;BME280;13185;50.872;5.306;2024-01-15T04:20:28;100094.78;;;0.44;100.00
25238;BME280;13185;50.872;5.306;2024-01-15T04:22:53;100094.88;;;0.41;100.00
25238;BME280;13185;50.872;5.306;2024-01-15T04:25:19;100098.50;;;0.39;100.00
25238;BME280;13185;50.872;5.306;2024-01-15T04:27:44;100093.28;;;0.37;100.00
25238;BME280;13185;50.872;5.306;2024-01-15T04:30:10;100090.63;;;0.37;100.00
25238;BME280;13185;50.872;5.306;2024-01-15T04:32:36;100079.16;;;0.38;100.00
25238;BME280;13185;50.872;5.306;2024-01-15T04:35:02;100091.50;;;0.38;100.00
25238;BME280;13185;50.872;5.306;2024-01-15T04:37:27;100085.38;;;0.37;100.00
25238;BME280;13185;50.872;5.306;2024-01-15T04:39:53;100076.59;;;0.37;100.00
25238;BME280;13185;50.872;5.306;2024-01-15T04:42:21;100081.00;;;0.36;100.00
25238;BME280;13185;50.872;5.306;2024-01-15T04:44:47;100076.66;;;0.35;100.00
25238;BME280;13185;50.872;5.306;2024-01-15T04:47:12;100066.16;;;0.34;100.00
25238;BME280;13185;50.872;5.306;2024-01-15T04:49:38;100062.66;;;0.33;100.00
25238;BME280;13185;50.872;5.306;2024-01-15T04:52:03;100060.88;;;0.34;100.00
25238;BME280;13185;50.872;5.306;2024-01-15T04:54:29;100065.31;;;0.33;100.00
25238;BME280;13185;50.872;5.306;2024-01-15T04:56:54;100064.47;;;0.31;100.00
25238;BME280;13185;50.872;5.306;2024-01-15T04:59:20;100062.75;;;0.30;100.00
25238;BME280;13185;50.872;5.306;2024-01-15T05:01:45;100068.09;;;0.28;100.00
25238;BME280;13185;50.872;5.306;2024-01-15T05:04:11;100060.16;;;0.28;100.00
25238;BME280;13185;50.872;5.306;2024-01-15T05:06:36;100054.97;;;0.27;100.00
25238;BME280;13185;50.872;5.306;2024-01-15T05:09:02;100070.72;;;0.28;100.00
25238;BME280;13185;50.872;5.306;2024-01-15T05:11:29;100065.44;;;0.28;100.00
25238;BME280;13185;50.872;5.306;2024-01-15T05:13:54;100061.94;;;0.28;100.00
25238;BME280;13185;50.872;5.306;2024-01-15T05:16:19;100063.84;;;0.24;100.00
25238;BME280;13185;50.872;5.306;2024-01-15T05:18:45;100064.72;;;0.25;100.00
25238;BME280;13185;50.872;5.306;2024-01-15T05:21:10;100067.34;;;0.25;100.00
25238;BME280;13185;50.872;5.306;2024-01-15T05:23:36;100057.66;;;0.25;100.00
25238;BME280;13185;50.872;5.306;2024-01-15T05:26:01;100061.22;;;0.24;100.00
25238;BME280;13185;50.872;5.306;2024-01-15T05:28:27;100069.97;;;0.25;100.00
25238;BME280;13185;50.872;5.306;2024-01-15T05:30:53;100060.47;;;0.21;100.00
25238;BME280;13185;50.872;5.306;2024-01-15T05:33:21;100058.72;;;0.20;100.00
25238;BME280;13185;50.872;5.306;2024-01-15T05:35:47;100048.28;;;0.17;100.00
25238;BME280;13185;50.872;5.306;2024-01-15T05:38:13;100048.47;;;0.12;100.00
25238;BME280;13185;50.872;5.306;2024-01-15T05:40:38;100042.34;;;0.10;100.00
25238;BME280;13185;50.872;5.306;2024-01-15T05:43:04;100041.56;;;0.08;100.00
25238;BME280;13185;50.872;5.306;2024-01-15T05:45:30;100038.13;;;0.06;100.00
25238;BME280;13185;50.872;5.306;2024-01-15T05:47:56;100044.38;;;0.04;100.00
25238;BME280;13185;50.872;5.306;2024-01-15T05:50:22;100040.91;;;0.02;100.00
25238;BME280;13185;50.872;5.306;2024-01-15T05:52:48;100049.81;;;-0.03;100.00
25238;BME280;13185;50.872;5.306;2024-01-15T05:55:13;100051.66;;;-0.05;100.00
25238;BME280;13185;50.872;5.306;2024-01-15T05:57:39;100045.53;;;-0.05;100.00
25238;BME280;13185;50.872;5.306;2024-01-15T06:00:06;100034.13;;;-0.06;100.00
25238;BME280;13185;50.872;5.306;2024-01-15T06:02:33;100038.47;;;-0.05;100.00
25238;BME280;13185;50.872;5.306;2024-01-15T06:04:59;100035.00;;;-0.05;100.00
25238;BME280;13185;50.872;5.306;2024-01-15T06:07:24;100039.41;;;-0.06;100.00
25238;BME280;13185;50.872;5.306;2024-01-15T06:09:50;100033.31;;;-0.08;100.00
25238;BME280;13185;50.872;5.306;2024-01-15T06:12:16;100022.84;;;-0.09;100.00
25238;BME280;13185;50.872;5.306;2024-01-15T06:14:41;100027.19;;;-0.08;100.00
25238;BME280;13185;50.872;5.306;2024-01-15T06:17:07;100026.34;;;-0.09;100.00
25238;BME280;13185;50.872;5.306;2024-01-15T06:19:33;100022.84;;;-0.09;100.00
25238;BME280;13185;50.872;5.306;2024-01-15T06:21:58;100024.56;;;-0.08;100.00
25238;BME280;13185;50.872;5.306;2024-01-15T06:24:24;100025.47;;;-0.09;100.00
25238;BME280;13185;50.872;5.306;2024-01-15T06:26:50;100031.59;;;-0.09;100.00
25238;BME280;13185;50.872;5.306;2024-01-15T06:29:15;100023.78;;;-0.12;100.00
25238;BME280;13185;50.872;5.306;2024-01-15T06:31:41;100029.91;;;-0.11;100.00
25238;BME280;13185;50.872;5.306;2024-01-15T06:34:06;100022.13;;;-0.14;100.00
25238;BME280;13185;50.872;5.306;2024-01-15T06:36:32;100022.97;;;-0.14;100.00
25238;BME280;13185;50.872;5.306;2024-01-15T06:38:57;100025.63;;;-0.14;100.00
25238;BME280;13185;50.872;5.306;2024-01-15T06:41:23;100027.44;;;-0.16;100.00
25238;BME280;13185;50.872;5.306;2024-01-15T06:43:48;100033.69;;;-0.18;100.00
25238;BME280;13185;50.872;5.306;2024-01-15T06:46:22;100034.56;;;-0.18;100.00
25238;BME280;13185;50.872;5.306;2024-01-15T06:48:48;100028.38;;;-0.17;100.00
25238;BME280;13185;50.872;5.306;2024-01-15T06:51:15;100024.81;;;-0.16;100.00
25238;BME280;13185;50.872;5.306;2024-01-15T06:53:40;100019.50;;;-0.14;100.00
25238;BME280;13185;50.872;5.306;2024-01-15T06:56:06;100022.00;;;-0.11;100.00
25238;BME280;13185;50.872;5.306;2024-01-15T06:58:31;100021.97;;;-0.10;100.00
25238;BME280;13185;50.872;5.306;2024-01-15T07:00:57;100030.75;;;-0.09;100.00
25238;BME280;13185;50.872;5.306;2024-01-15T07:03:23;100028.13;;;-0.09;100.00
25238;BME280;13185;50.872;5.306;2024-01-15T07:05:49;100029.84;;;-0.08;100.00
25238;BME280;13185;50.872;5.306;2024-01-15T07:08:14;100028.00;;;-0.06;100.00
25238;BME280;13185;50.872;5.306;2024-01-15T07:10:40;100016.53;;;-0.05;100.00
25238;BME280;13185;50.872;5.306;2024-01-15T07:13:05;100027.88;;;-0.03;100.00
25238;BME280;13185;50.872;5.306;2024-01-15T07:15:31;100008.50;;;-0.02;100.00
25238;BME280;13185;50.872;5.306;2024-01-15T07:17:56;100012.84;;;0.01;100.00
25238;BME280;13185;50.872;5.306;2024-01-15T07:20:22;100007.59;;;-0.01;100.00
25238;BME280;13185;50.872;5.306;2024-01-15T07:22:47;100011.09;;;-0.01;100.00
25238;BME280;13185;50.872;5.306;2024-01-15T07:25:13;100011.06;;;0.01;100.00
25238;BME280;13185;50.872;5.306;2024-01-15T07:27:38;100016.22;;;0.04;100.00
25238;BME280;13185;50.872;5.306;2024-01-15T07:30:04;100019.72;;;0.05;100.00
25238;BME280;13185;50.872;5.306;2024-01-15T07:32:31;100022.34;;;0.05;100.00
25238;BME280;13185;50.872;5.306;2024-01-15T07:34:57;100025.78;;;0.07;100.00
25238;BME280;13185;50.872;5.306;2024-01-15T07:37:24;100038.91;;;0.08;100.00
25238;BME280;13185;50.872;5.306;2024-01-15T07:39:50;100034.44;;;0.10;100.00
25238;BME280;13185;50.872;5.306;2024-01-15T07:42:15;100030.00;;;0.12;100.00
25238;BME280;13185;50.872;5.306;2024-01-15T07:44:41;100035.22;;;0.14;100.00
25238;BME280;13185;50.872;5.306;2024-01-15T07:47:07;100033.44;;;0.14;100.00
25238;BME280;13185;50.872;5.306;2024-01-15T07:49:34;100035.16;;;0.15;100.00
25238;BME280;13185;50.872;5.306;2024-01-15T07:52:00;100043.00;;;0.17;100.00
25238;BME280;13185;50.872;5.306;2024-01-15T07:54:25;100039.47;;;0.18;100.00
25238;BME280;13185;50.872;5.306;2024-01-15T07:56:59;100039.41;;;0.19;100.00
25238;BME280;13185;50.872;5.306;2024-01-15T07:59:25;100045.50;;;0.21;100.00
25238;BME280;13185;50.872;5.306;2024-01-15T08:01:51;100065.69;;;0.22;100.00
25238;BME280;13185;50.872;5.306;2024-01-15T08:04:17;100048.81;;;0.26;100.00
25238;BME280;13185;50.872;5.306;2024-01-15T08:06:42;100054.03;;;0.28;100.00
25238;BME280;13185;50.872;5.306;2024-01-15T08:09:08;100063.66;;;0.29;100.00
25238;BME280;13185;50.872;5.306;2024-01-15T08:11:34;100056.56;;;0.31;100.00
25238;BME280;13185;50.872;5.306;2024-01-15T08:14:00;100059.16;;;0.33;100.00
25238;BME280;13185;50.872;5.306;2024-01-15T08:16:25;100061.75;;;0.34;100.00
25238;BME280;13185;50.872;5.306;2024-01-15T08:18:53;100057.34;;;0.35;100.00
25238;BME280;13185;50.872;5.306;2024-01-15T08:21:19;100073.97;;;0.37;100.00
25238;BME280;13185;50.872;5.306;2024-01-15T08:23:44;100062.53;;;0.36;100.00
25238;BME280;13185;50.872;5.306;2024-01-15T08:26:10;100068.63;;;0.38;100.00
25238;BME280;13185;50.872;5.306;2024-01-15T08:28:37;100061.56;;;0.39;100.00
25238;BME280;13185;50.872;5.306;2024-01-15T08:31:03;100073.84;;;0.40;100.00
25238;BME280;13185;50.872;5.306;2024-01-15T08:33:29;100074.75;;;0.39;100.00
25238;BME280;13185;50.872;5.306;2024-01-15T08:35:56;100077.41;;;0.39;100.00
25238;BME280;13185;50.872;5.306;2024-01-15T08:38:22;100073.97;;;0.37;100.00
25238;BME280;13185;50.872;5.306;2024-01-15T08:40:49;100080.03;;;0.39;100.00
25238;BME280;13185;50.872;5.306;2024-01-15T08:43:14;100076.53;;;0.38;100.00
25238;BME280;13185;50.872;5.306;2024-01-15T08:45:40;100070.41;;;0.38;100.00
25238;BME280;13185;50.872;5.306;2024-01-15T08:48:06;100080.88;;;0.39;100.00
25238;BME280;13185;50.872;5.306;2024-01-15T08:50:32;100084.38;;;0.40;100.00
25238;BME280;13185;50.872;5.306;2024-01-15T08:52:58;100092.25;;;0.41;100.00
25238;BME280;13185;50.872;5.306;2024-01-15T08:55:23;100081.66;;;0.43;100.00
25238;BME280;13185;50.872;5.306;2024-01-15T08:57:49;100088.53;;;0.47;100.00
25238;BME280;13185;50.872;5.306;2024-01-15T09:00:15;100089.47;;;0.46;100.00
25238;BME280;13185;50.872;5.306;2024-01-15T09:02:42;100086.75;;;0.47;100.00
25238;BME280;13185;50.872;5.306;2024-01-15T09:05:07;100094.78;;;0.44;100.00
25238;BME280;13185;50.872;5.306;2024-01-15T09:07:33;100096.50;;;0.45;100.00
25238;BME280;13185;50.872;5.306;2024-01-15T09:09:59;100092.91;;;0.48;100.00
25238;BME280;13185;50.872;5.306;2024-01-15T09:12:25;100085.97;;;0.45;100.00
25238;BME280;13185;50.872;5.306;2024-01-15T09:14:51;100087.63;;;0.48;100.00
25238;BME280;13185;50.872;5.306;2024-01-15T09:17:17;100078.72;;;0.50;100.00
25238;BME280;13185;50.872;5.306;2024-01-15T09:19:43;100085.69;;;0.53;100.00
25238;BME280;13185;50.872;5.306;2024-01-15T09:22:09;100081.28;;;0.53;100.00
25238;BME280;13185;50.872;5.306;2024-01-15T09:24:35;100074.28;;;0.52;100.00
25238;BME280;13185;50.872;5.306;2024-01-15T09:27:00;100078.66;;;0.53;100.00
25238;BME280;13185;50.872;5.306;2024-01-15T09:29:26;100076.88;;;0.54;100.00
25238;BME280;13185;50.872;5.306;2024-01-15T09:31:51;100088.28;;;0.54;100.00
25238;BME280;13185;50.872;5.306;2024-01-15T09:34:18;100099.63;;;0.56;100.00
25238;BME280;13185;50.872;5.306;2024-01-15T09:36:43;100102.16;;;0.60;100.00
25238;BME280;13185;50.872;5.306;2024-01-15T09:39:09;100083.75;;;0.58;100.00
25238;BME280;13185;50.872;5.306;2024-01-15T09:41:39;100091.59;;;0.60;100.00
25238;BME280;13185;50.872;5.306;2024-01-15T09:44:05;100087.19;;;0.60;100.00
25238;BME280;13185;50.872;5.306;2024-01-15T09:46:31;100086.25;;;0.61;100.00
25238;BME280;13185;50.872;5.306;2024-01-15T09:48:58;100087.94;;;0.64;100.00
25238;BME280;13185;50.872;5.306;2024-01-15T09:51:24;100094.81;;;0.68;100.00
25238;BME280;13185;50.872;5.306;2024-01-15T09:53:50;100084.16;;;0.71;100.00
25238;BME280;13185;50.872;5.306;2024-01-15T09:56:16;100090.13;;;0.76;100.00
25238;BME280;13185;50.872;5.306;2024-01-15T09:58:42;100078.59;;;0.78;100.00
25238;BME280;13185;50.872;5.306;2024-01-15T10:01:08;100088.75;;;0.89;100.00
25238;BME280;13185;50.872;5.306;2024-01-15T10:03:34;100093.75;;;0.97;100.00
25238;BME280;13185;50.872;5.306;2024-01-15T10:06:00;100095.22;;;1.04;100.00
25238;BME280;13185;50.872;5.306;2024-01-15T10:08:28;100087.88;;;1.12;100.00
25238;BME280;13185;50.872;5.306;2024-01-15T10:10:53;100087.66;;;1.18;100.00
25238;BME280;13185;50.872;5.306;2024-01-15T10:13:19;100094.53;;;1.22;100.00
25238;BME280;13185;50.872;5.306;2024-01-15T10:15:46;100097.94;;;1.26;100.00
25238;BME280;13185;50.872;5.306;2024-01-15T10:18:15;100086.38;;;1.28;100.00
25238;BME280;13185;50.872;5.306;2024-01-15T10:20:40;100081.69;;;1.35;100.00
25238;BME280;13185;50.872;5.306;2024-01-15T10:23:06;100092.31;;;1.33;100.00
25238;BME280;13185;50.872;5.306;2024-01-15T10:25:32;100080.03;;;1.32;100.00
25238;BME280;13185;50.872;5.306;2024-01-15T10:28:02;100085.38;;;1.31;100.00
25238;BME280;13185;50.872;5.306;2024-01-15T10:30:28;100078.19;;;1.34;100.00
25238;BME280;13185;50.872;5.306;2024-01-15T10:33:01;100084.31;;;1.36;100.00
25238;BME280;13185;50.872;5.306;2024-01-15T10:35:31;100077.25;;;1.37;100.00
25238;BME280;13185;50.872;5.306;2024-01-15T10:37:57;100085.66;;;1.47;100.00
25238;BME280;13185;50.872;5.306;2024-01-15T10:40:23;100089.75;;;1.54;100.00
25238;BME280;13185;50.872;5.306;2024-01-15T10:42:48;100088.75;;;1.58;100.00
25238;BME280;13185;50.872;5.306;2024-01-15T10:45:14;100078.88;;;1.61;100.00
25238;BME280;13185;50.872;5.306;2024-01-15T10:47:43;100083.13;;;1.65;100.00
25238;BME280;13185;50.872;5.306;2024-01-15T10:50:10;100088.38;;;1.67;100.00
25238;BME280;13185;50.872;5.306;2024-01-15T10:52:40;100083.00;;;1.68;100.00
25238;BME280;13185;50.872;5.306;2024-01-15T10:55:09;100083.81;;;1.70;100.00
25238;BME280;13185;50.872;5.306;2024-01-15T10:57:36;100087.25;;;1.72;100.00
25238;BME280;13185;50.872;5.306;2024-01-15T11:00:03;100089.81;;;1.74;100.00
25238;BME280;13185;50.872;5.306;2024-01-15T11:02:35;100096.59;;;1.81;100.00
25238;BME280;13185;50.872;5.306;2024-01-15T11:05:01;100094.59;;;1.86;100.00
25238;BME280;13185;50.872;5.306;2024-01-15T11:07:27;100103.22;;;1.91;100.00
25238;BME280;13185;50.872;5.306;2024-01-15T11:09:52;100092.50;;;1.94;100.00
25238;BME280;13185;50.872;5.306;2024-01-15T11:12:18;100091.41;;;2.00;100.00
25238;BME280;13185;50.872;5.306;2024-01-15T11:14:49;100095.44;;;2.09;100.00
25238;BME280;13185;50.872;5.306;2024-01-15T11:17:16;100091.59;;;2.16;100.00
25238;BME280;13185;50.872;5.306;2024-01-15T11:19:45;100086.13;;;2.20;100.00
25238;BME280;13185;50.872;5.306;2024-01-15T11:25:02;100096.75;;;2.39;100.00
25238;BME280;13185;50.872;5.306;2024-01-15T11:27:54;100098.94;;;2.50;100.00
25238;BME280;13185;50.872;5.306;2024-01-15T11:30:24;100102.78;;;2.63;100.00
25238;BME280;13185;50.872;5.306;2024-01-15T11:32:50;100091.50;;;2.78;100.00
25238;BME280;13185;50.872;5.306;2024-01-15T11:35:16;100081.22;;;2.91;99.61
25238;BME280;13185;50.872;5.306;2024-01-15T11:42:58;100092.81;;;2.88;96.52
25238;BME280;13185;50.872;5.306;2024-01-15T11:45:23;100101.06;;;2.82;96.00
25238;BME280;13185;50.872;5.306;2024-01-15T11:50:18;100099.47;;;2.58;95.66
25238;BME280;13185;50.872;5.306;2024-01-15T11:52:51;100112.13;;;2.51;97.17
25238;BME280;13185;50.872;5.306;2024-01-15T11:55:30;100108.41;;;2.35;99.54
25238;BME280;13185;50.872;5.306;2024-01-15T11:58:00;100104.31;;;2.28;100.00
25238;BME280;13185;50.872;5.306;2024-01-15T12:00:26;100106.38;;;2.21;100.00
25238;BME280;13185;50.872;5.306;2024-01-15T12:02:52;100101.31;;;2.15;100.00
25238;BME280;13185;50.872;5.306;2024-01-15T12:05:19;100104.28;;;2.08;100.00
25238;BME280;13185;50.872;5.306;2024-01-15T12:07:47;100116.06;;;2.00;100.00
25238;BME280;13185;50.872;5.306;2024-01-15T12:10:18;100114.59;;;1.93;100.00
25238;BME280;13185;50.872;5.306;2024-01-15T12:12:59;100117.47;;;1.87;100.00
25238;BME280;13185;50.872;5.306;2024-01-15T12:15:27;100114.88;;;1.86;100.00
25238;BME280;13185;50.872;5.306;2024-01-15T12:17:55;100125.81;;;1.78;100.00
25238;BME280;13185;50.872;5.306;2024-01-15T12:20:24;100125.81;;;1.78;100.00
25238;BME280;13185;50.872;5.306;2024-01-15T12:22:49;100109.19;;;1.74;100.00
25238;BME280;13185;50.872;5.306;2024-01-15T12:25:15;100120.63;;;1.75;100.00
25238;BME280;13185;50.872;5.306;2024-01-15T12:27:40;100125.09;;;1.73;100.00
25238;BME280;13185;50.872;5.306;2024-01-15T12:30:06;100142.94;;;1.68;100.00
25238;BME280;13185;50.872;5.306;2024-01-15T12:32:32;100151.03;;;1.63;100.00
25238;BME280;13185;50.872;5.306;2024-01-15T12:35:00;100161.91;;;1.56;100.00
25238;BME280;13185;50.872;5.306;2024-01-15T12:37:25;100153.44;;;1.48;100.00
25238;BME280;13185;50.872;5.306;2024-01-15T12:39:52;100165.38;;;1.34;100.00
25238;BME280;13185;50.872;5.306;2024-01-15T12:42:17;100165.63;;;1.28;100.00
25238;BME280;13185;50.872;5.306;2024-01-15T12:44:44;100169.53;;;1.18;100.00
25238;BME280;13185;50.872;5.306;2024-01-15T12:47:10;100160.09;;;1.11;100.00
25238;BME280;13185;50.872;5.306;2024-01-15T12:49:39;100160.09;;;1.11;100.00
25238;BME280;13185;50.872;5.306;2024-01-15T12:52:10;100181.34;;;1.08;100.00